sensor_id;sensor_type;location;lat;lon;timestamp;P1;durP1;ratioP1;P2;durP2;ratioP2
33836;SDS011;20140;49.356;8.812;2024-01-27T00:01:10;2.40;;;0.98;;
33836;SDS011;20140;49.356;8.812;2024-01-27T00:03:36;3.22;;;0.98;;
33836;SDS011;20140;49.356;8.812;2024-01-27T00:06:01;2.78;;;1.15;;
33836;SDS011;20140;49.356;8.812;2024-01-27T00:08:27;4.32;;;1.90;;
33836;SDS011;20140;49.356;8.812;2024-01-27T00:10:53;2.47;;;1.30;;
33836;SDS011;20140;49.356;8.812;2024-01-27T00:13:18;3.83;;;2.13;;
33836;SDS011;20140;49.356;8.812;2024-01-27T00:15:44;1.80;;;1.33;;
33836;SDS011;20140;49.356;8.812;2024-01-27T00:18:09;3.35;;;1.60;;
33836;SDS011;20140;49.356;8.812;2024-01-27T00:20:35;1.80;;;1.08;;
33836;SDS011;20140;49.356;8.812;2024-01-27T00:23:00;1.27;;;0.98;;
33836;SDS011;20140;49.356;8.812;2024-01-27T00:25:26;2.47;;;1.40;;
33836;SDS011;20140;49.356;8.812;2024-01-27T00:27:51;4.93;;;1.67;;
33836;SDS011;20140;49.356;8.812;2024-01-27T00:30:17;2.40;;;1.38;;
33836;SDS011;20140;49.356;8.812;2024-01-27T00:32:42;2.05;;;1.35;;
33836;SDS011;20140;49.356;8.812;2024-01-27T00:35:08;2.42;;;1.50;;
33836;SDS011;20140;49.356;8.812;2024-01-27T00:37:36;4.13;;;1.40;;
33836;SDS011;20140;49.356;8.812;2024-01-27T00:40:02;3.77;;;1.97;;
33836;SDS011;20140;49.356;8.812;2024-01-27T00:42:27;7.35;;;1.50;;
33836;SDS011;20140;49.356;8.812;2024-01-27T00:44:53;4.80;;;1.75;;
33836;SDS011;20140;49.356;8.812;2024-01-27T00:47:18;2.38;;;1.30;;
33836;SDS011;20140;49.356;8.812;2024-01-27T00:49:44;3.10;;;1.70;;
33836;SDS011;20140;49.356;8.812;2024-01-27T00:52:09;2.77;;;1.43;;
33836;SDS011;20140;49.356;8.812;2024-01-27T00:54:35;1.37;;;1.17;;
33836;SDS011;20140;49.356;8.812;2024-01-27T00:57:00;1.50;;;1.33;;
33836;SDS011;20140;49.356;8.812;2024-01-27T00:59:26;3.92;;;1.60;;
33836;SDS011;20140;49.356;8.812;2024-01-27T01:01:52;4.80;;;1.75;;
33836;SDS011;20140;49.356;8.812;2024-01-27T01:04:17;1.52;;;1.40;;
33836;SDS011;20140;49.356;8.812;2024-01-27T01:06:43;2.42;;;1.27;;
33836;SDS011;20140;49.356;8.812;2024-01-27T01:09:11;2.70;;;1.30;;
33836;SDS011;20140;49.356;8.812;2024-01-27T01:11:37;3.78;;;1.60;;
33836;SDS011;20140;49.356;8.812;2024-01-27T01:14:02;2.50;;;1.03;;
33836;SDS011;20140;49.356;8.812;2024-01-27T01:16:28;4.67;;;1.83;;
33836;SDS011;20140;49.356;8.812;2024-01-27T01:18:53;8.60;;;1.50;;
33836;SDS011;20140;49.356;8.812;2024-01-27T01:21:19;2.13;;;1.43;;
33836;SDS011;20140;49.356;8.812;2024-01-27T01:23:44;1.20;;;0.97;;
33836;SDS011;20140;49.356;8.812;2024-01-27T01:26:10;2.20;;;1.57;;
33836;SDS011;20140;49.356;8.812;2024-01-27T01:28:35;1.37;;;1.20;;
33836;SDS011;20140;49.356;8.812;2024-01-27T01:31:02;3.30;;;1.90;;
33836;SDS011;20140;49.356;8.812;2024-01-27T01:33:27;4.20;;;1.38;;
33836;SDS011;20140;49.356;8.812;2024-01-27T01:35:53;2.13;;;1.60;;
33836;SDS011;20140;49.356;8.812;2024-01-27T01:38:21;2.40;;;2.03;;
33836;SDS011;20140;49.356;8.812;2024-01-27T01:40:46;3.28;;;1.55;;
33836;SDS011;20140;49.356;8.812;2024-01-27T01:43:12;4.50;;;2.07;;
33836;SDS011;20140;49.356;8.812;2024-01-27T01:45:37;3.07;;;1.87;;
33836;SDS011;20140;49.356;8.812;2024-01-27T01:48:03;2.30;;;1.50;;
33836;SDS011;20140;49.356;8.812;2024-01-27T01:50:31;2.90;;;1.60;;
33836;SDS011;20140;49.356;8.812;2024-01-27T01:52:57;1.90;;;1.30;;
33836;SDS011;20140;49.356;8.812;2024-01-27T01:55:23;1.75;;;1.30;;
33836;SDS011;20140;49.356;8.812;2024-01-27T01:57:49;3.15;;;1.35;;
33836;SDS011;20140;49.356;8.812;2024-01-27T02:00:15;1.92;;;1.67;;
33836;SDS011;20140;49.356;8.812;2024-01-27T02:02:42;2.60;;;1.50;;
33836;SDS011;20140;49.356;8.812;2024-01-27T02:05:09;3.33;;;2.00;;
33836;SDS011;20140;49.356;8.812;2024-01-27T02:07:35;2.83;;;1.60;;
33836;SDS011;20140;49.356;8.812;2024-01-27T02:10:01;3.60;;;1.60;;
33836;SDS011;20140;49.356;8.812;2024-01-27T02:12:27;5.72;;;1.80;;
33836;SDS011;20140;49.356;8.812;2024-01-27T02:14:53;2.67;;;1.52;;
33836;SDS011;20140;49.356;8.812;2024-01-27T02:17:20;1.48;;;1.30;;
33836;SDS011;20140;49.356;8.812;2024-01-27T02:19:46;5.77;;;2.07;;
33836;SDS011;20140;49.356;8.812;2024-01-27T02:22:11;2.87;;;1.77;;
33836;SDS011;20140;49.356;8.812;2024-01-27T02:24:37;2.60;;;2.10;;
33836;SDS011;20140;49.356;8.812;2024-01-27T02:27:02;3.00;;;1.53;;
33836;SDS011;20140;49.356;8.812;2024-01-27T02:29:28;2.77;;;1.13;;
33836;SDS011;20140;49.356;8.812;2024-01-27T02:31:54;5.20;;;1.73;;
33836;SDS011;20140;49.356;8.812;2024-01-27T02:34:20;4.03;;;1.90;;
33836;SDS011;20140;49.356;8.812;2024-01-27T02:36:46;3.70;;;1.63;;
33836;SDS011;20140;49.356;8.812;2024-01-27T02:39:12;1.70;;;1.25;;
33836;SDS011;20140;49.356;8.812;2024-01-27T02:41:38;3.00;;;1.77;;
33836;SDS011;20140;49.356;8.812;2024-01-27T02:44:07;4.45;;;2.03;;
33836;SDS011;20140;49.356;8.812;2024-01-27T02:46:32;2.30;;;1.38;;
33836;SDS011;20140;49.356;8.812;2024-01-27T02:48:58;3.42;;;1.83;;
33836;SDS011;20140;49.356;8.812;2024-01-27T02:51:23;2.40;;;1.42;;
33836;SDS011;20140;49.356;8.812;2024-01-27T02:53:49;3.30;;;1.67;;
33836;SDS011;20140;49.356;8.812;2024-01-27T02:56:17;2.85;;;1.88;;
33836;SDS011;20140;49.356;8.812;2024-01-27T02:58:43;3.10;;;1.80;;
33836;SDS011;20140;49.356;8.812;2024-01-27T03:01:08;3.72;;;2.15;;
33836;SDS011;20140;49.356;8.812;2024-01-27T03:03:34;3.42;;;1.75;;
33836;SDS011;20140;49.356;8.812;2024-01-27T03:05:59;3.80;;;1.92;;
33836;SDS011;20140;49.356;8.812;2024-01-27T03:08:26;4.35;;;2.30;;
33836;SDS011;20140;49.356;8.812;2024-01-27T03:10:51;4.93;;;2.28;;
33836;SDS011;20140;49.356;8.812;2024-01-27T03:13:17;1.77;;;1.60;;
33836;SDS011;20140;49.356;8.812;2024-01-27T03:15:44;2.25;;;1.63;;
33836;SDS011;20140;49.356;8.812;2024-01-27T03:18:09;4.18;;;2.17;;
33836;SDS011;20140;49.356;8.812;2024-01-27T03:20:35;1.70;;;1.60;;
33836;SDS011;20140;49.356;8.812;2024-01-27T03:23:00;2.97;;;1.70;;
33836;SDS011;20140;49.356;8.812;2024-01-27T03:25:28;4.95;;;1.90;;
33836;SDS011;20140;49.356;8.812;2024-01-27T03:27:54;4.93;;;2.38;;
33836;SDS011;20140;49.356;8.812;2024-01-27T03:30:20;3.10;;;1.73;;
33836;SDS011;20140;49.356;8.812;2024-01-27T03:32:46;3.37;;;2.00;;
33836;SDS011;20140;49.356;8.812;2024-01-27T03:35:11;4.00;;;1.60;;
33836;SDS011;20140;49.356;8.812;2024-01-27T03:37:37;3.63;;;1.70;;
33836;SDS011;20140;49.356;8.812;2024-01-27T03:40:02;5.87;;;1.73;;
33836;SDS011;20140;49.356;8.812;2024-01-27T03:42:28;5.27;;;2.73;;
33836;SDS011;20140;49.356;8.812;2024-01-27T03:44:55;2.67;;;1.93;;
33836;SDS011;20140;49.356;8.812;2024-01-27T03:47:21;1.73;;;1.40;;
33836;SDS011;20140;49.356;8.812;2024-01-27T03:49:46;2.00;;;1.73;;
33836;SDS011;20140;49.356;8.812;2024-01-27T03:52:12;1.55;;;1.25;;
33836;SDS011;20140;49.356;8.812;2024-01-27T03:54:38;3.80;;;2.20;;
33836;SDS011;20140;49.356;8.812;2024-01-27T03:57:04;3.13;;;2.70;;
33836;SDS011;20140;49.356;8.812;2024-01-27T03:59:29;2.77;;;2.20;;
33836;SDS011;20140;49.356;8.812;2024-01-27T04:01:55;2.30;;;1.90;;
33836;SDS011;20140;49.356;8.812;2024-01-27T04:04:22;3.92;;;2.35;;
33836;SDS011;20140;49.356;8.812;2024-01-27T04:06:49;4.88;;;2.08;;
33836;SDS011;20140;49.356;8.812;2024-01-27T04:09:14;3.27;;;2.13;;
33836;SDS011;20140;49.356;8.812;2024-01-27T04:11:40;7.45;;;2.67;;
33836;SDS011;20140;49.356;8.812;2024-01-27T04:14:06;5.03;;;2.33;;
33836;SDS011;20140;49.356;8.812;2024-01-27T04:16:32;2.93;;;2.03;;
33836;SDS011;20140;49.356;8.812;2024-01-27T04:18:57;5.37;;;2.87;;
33836;SDS011;20140;49.356;8.812;2024-01-27T04:21:23;2.90;;;2.23;;
33836;SDS011;20140;49.356;8.812;2024-01-27T04:23:49;5.27;;;2.13;;
33836;SDS011;20140;49.356;8.812;2024-01-27T04:26:14;2.97;;;2.22;;
33836;SDS011;20140;49.356;8.812;2024-01-27T04:28:40;2.40;;;1.58;;
33836;SDS011;20140;49.356;8.812;2024-01-27T04:31:06;2.53;;;1.77;;
33836;SDS011;20140;49.356;8.812;2024-01-27T04:33:32;3.33;;;2.10;;
33836;SDS011;20140;49.356;8.812;2024-01-27T04:35:57;3.95;;;1.90;;
33836;SDS011;20140;49.356;8.812;2024-01-27T04:38:23;2.40;;;2.17;;
33836;SDS011;20140;49.356;8.812;2024-01-27T04:40:49;5.78;;;2.33;;
33836;SDS011;20140;49.356;8.812;2024-01-27T04:43:18;3.83;;;2.05;;
33836;SDS011;20140;49.356;8.812;2024-01-27T04:45:45;3.65;;;1.60;;
33836;SDS011;20140;49.356;8.812;2024-01-27T04:48:11;3.63;;;2.27;;
33836;SDS011;20140;49.356;8.812;2024-01-27T04:50:37;2.80;;;1.63;;
33836;SDS011;20140;49.356;8.812;2024-01-27T04:53:03;4.30;;;1.92;;
33836;SDS011;20140;49.356;8.812;2024-01-27T04:55:29;2.45;;;2.25;;
33836;SDS011;20140;49.356;8.812;2024-01-27T04:57:54;2.90;;;2.60;;
33836;SDS011;20140;49.356;8.812;2024-01-27T05:00:20;4.13;;;2.97;;
33836;SDS011;20140;49.356;8.812;2024-01-27T05:02:45;3.43;;;2.87;;
33836;SDS011;20140;49.356;8.812;2024-01-27T05:05:11;3.77;;;2.23;;
33836;SDS011;20140;49.356;8.812;2024-01-27T05:07:37;2.92;;;1.95;;
33836;SDS011;20140;49.356;8.812;2024-01-27T05:10:04;5.32;;;2.42;;
33836;SDS011;20140;49.356;8.812;2024-01-27T05:12:29;3.33;;;1.67;;
33836;SDS011;20140;49.356;8.812;2024-01-27T05:14:55;1.65;;;1.55;;
33836;SDS011;20140;49.356;8.812;2024-01-27T05:17:21;1.90;;;1.42;;
33836;SDS011;20140;49.356;8.812;2024-01-27T05:19:46;3.22;;;2.00;;
33836;SDS011;20140;49.356;8.812;2024-01-27T05:22:12;2.13;;;1.92;;
33836;SDS011;20140;49.356;8.812;2024-01-27T05:24:37;3.55;;;2.10;;
33836;SDS011;20140;49.356;8.812;2024-01-27T05:27:03;2.58;;;2.25;;
33836;SDS011;20140;49.356;8.812;2024-01-27T05:29:29;2.22;;;1.92;;
33836;SDS011;20140;49.356;8.812;2024-01-27T05:31:56;2.30;;;1.63;;
33836;SDS011;20140;49.356;8.812;2024-01-27T05:34:22;2.10;;;1.30;;
33836;SDS011;20140;49.356;8.812;2024-01-27T05:36:48;3.60;;;2.15;;
33836;SDS011;20140;49.356;8.812;2024-01-27T05:39:13;2.53;;;1.35;;
33836;SDS011;20140;49.356;8.812;2024-01-27T05:41:39;3.40;;;1.90;;
33836;SDS011;20140;49.356;8.812;2024-01-27T05:44:05;2.20;;;1.33;;
33836;SDS011;20140;49.356;8.812;2024-01-27T05:46:30;5.80;;;2.10;;
33836;SDS011;20140;49.356;8.812;2024-01-27T05:48:56;6.30;;;4.27;;
33836;SDS011;20140;49.356;8.812;2024-01-27T05:51:26;2.35;;;1.88;;
33836;SDS011;20140;49.356;8.812;2024-01-27T05:53:52;2.33;;;1.63;;
33836;SDS011;20140;49.356;8.812;2024-01-27T05:56:18;2.25;;;1.83;;
33836;SDS011;20140;49.356;8.812;2024-01-27T05:58:45;3.72;;;1.95;;
33836;SDS011;20140;49.356;8.812;2024-01-27T06:01:11;3.00;;;2.33;;
33836;SDS011;20140;49.356;8.812;2024-01-27T06:03:36;3.93;;;2.80;;
33836;SDS011;20140;49.356;8.812;2024-01-27T06:06:02;3.10;;;2.47;;
33836;SDS011;20140;49.356;8.812;2024-01-27T06:08:28;4.25;;;2.60;;
33836;SDS011;20140;49.356;8.812;2024-01-27T06:10:56;3.20;;;2.40;;
33836;SDS011;20140;49.356;8.812;2024-01-27T06:13:21;5.07;;;2.47;;
33836;SDS011;20140;49.356;8.812;2024-01-27T06:15:47;2.17;;;1.50;;
33836;SDS011;20140;49.356;8.812;2024-01-27T06:18:12;2.37;;;1.73;;
33836;SDS011;20140;49.356;8.812;2024-01-27T06:20:38;2.43;;;1.40;;
33836;SDS011;20140;49.356;8.812;2024-01-27T06:23:05;1.85;;;1.70;;
33836;SDS011;20140;49.356;8.812;2024-01-27T06:25:31;2.23;;;1.83;;
33836;SDS011;20140;49.356;8.812;2024-01-27T06:27:57;2.60;;;2.05;;
33836;SDS011;20140;49.356;8.812;2024-01-27T06:30:22;3.42;;;2.38;;
33836;SDS011;20140;49.356;8.812;2024-01-27T06:32:48;4.85;;;2.30;;
33836;SDS011;20140;49.356;8.812;2024-01-27T06:35:13;3.83;;;2.73;;
33836;SDS011;20140;49.356;8.812;2024-01-27T06:37:39;4.23;;;2.37;;
33836;SDS011;20140;49.356;8.812;2024-01-27T06:40:05;4.07;;;2.10;;
33836;SDS011;20140;49.356;8.812;2024-01-27T06:42:32;2.75;;;2.33;;
33836;SDS011;20140;49.356;8.812;2024-01-27T06:44:57;1.80;;;1.40;;
33836;SDS011;20140;49.356;8.812;2024-01-27T06:47:23;2.07;;;1.60;;
33836;SDS011;20140;49.356;8.812;2024-01-27T06:49:48;2.30;;;1.77;;
33836;SDS011;20140;49.356;8.812;2024-01-27T06:52:14;2.03;;;1.50;;
33836;SDS011;20140;49.356;8.812;2024-01-27T06:54:39;2.00;;;1.67;;
33836;SDS011;20140;49.356;8.812;2024-01-27T06:57:17;2.05;;;1.58;;
33836;SDS011;20140;49.356;8.812;2024-01-27T06:59:43;2.70;;;2.28;;
33836;SDS011;20140;49.356;8.812;2024-01-27T07:02:12;2.50;;;1.50;;
33836;SDS011;20140;49.356;8.812;2024-01-27T07:04:39;5.13;;;2.13;;
33836;SDS011;20140;49.356;8.812;2024-01-27T07:07:04;4.17;;;2.10;;
33836;SDS011;20140;49.356;8.812;2024-01-27T07:09:30;3.60;;;1.77;;
33836;SDS011;20140;49.356;8.812;2024-01-27T07:11:55;3.60;;;2.00;;
33836;SDS011;20140;49.356;8.812;2024-01-27T07:14:21;3.57;;;2.27;;
33836;SDS011;20140;49.356;8.812;2024-01-27T07:16:46;2.57;;;1.70;;
33836;SDS011;20140;49.356;8.812;2024-01-27T07:19:12;3.40;;;2.27;;
33836;SDS011;20140;49.356;8.812;2024-01-27T07:21:38;4.00;;;1.88;;
33836;SDS011;20140;49.356;8.812;2024-01-27T07:24:04;2.93;;;2.20;;
33836;SDS011;20140;49.356;8.812;2024-01-27T07:26:29;4.67;;;2.00;;
33836;SDS011;20140;49.356;8.812;2024-01-27T07:28:56;7.35;;;2.58;;
33836;SDS011;20140;49.356;8.812;2024-01-27T07:31:21;8.25;;;3.20;;
33836;SDS011;20140;49.356;8.812;2024-01-27T07:33:49;6.07;;;3.30;;
33836;SDS011;20140;49.356;8.812;2024-01-27T07:36:14;4.63;;;3.03;;
33836;SDS011;20140;49.356;8.812;2024-01-27T07:38:41;6.30;;;3.53;;
33836;SDS011;20140;49.356;8.812;2024-01-27T07:41:06;8.10;;;5.40;;
33836;SDS011;20140;49.356;8.812;2024-01-27T07:43:32;9.60;;;5.27;;
33836;SDS011;20140;49.356;8.812;2024-01-27T07:45:57;8.63;;;5.13;;
33836;SDS011;20140;49.356;8.812;2024-01-27T07:48:23;7.57;;;3.80;;
33836;SDS011;20140;49.356;8.812;2024-01-27T07:50:48;8.43;;;3.90;;
33836;SDS011;20140;49.356;8.812;2024-01-27T07:53:15;13.68;;;4.35;;
33836;SDS011;20140;49.356;8.812;2024-01-27T07:55:41;7.72;;;3.03;;
33836;SDS011;20140;49.356;8.812;2024-01-27T07:58:07;6.77;;;3.60;;
33836;SDS011;20140;49.356;8.812;2024-01-27T08:00:32;13.63;;;5.83;;
33836;SDS011;20140;49.356;8.812;2024-01-27T08:02:58;17.40;;;3.80;;
33836;SDS011;20140;49.356;8.812;2024-01-27T08:05:23;19.53;;;6.30;;
33836;SDS011;20140;49.356;8.812;2024-01-27T08:14:33;19.60;;;11.05;;
33836;SDS011;20140;49.356;8.812;2024-01-27T08:17:00;33.73;;;13.10;;
33836;SDS011;20140;49.356;8.812;2024-01-27T08:19:28;7.60;;;3.38;;
33836;SDS011;20140;49.356;8.812;2024-01-27T08:21:53;5.93;;;2.72;;
33836;SDS011;20140;49.356;8.812;2024-01-27T08:24:21;5.63;;;2.35;;
33836;SDS011;20140;49.356;8.812;2024-01-27T08:26:48;4.45;;;2.25;;
33836;SDS011;20140;49.356;8.812;2024-01-27T08:29:14;4.95;;;2.20;;
33836;SDS011;20140;49.356;8.812;2024-01-27T08:31:40;4.20;;;2.80;;
33836;SDS011;20140;49.356;8.812;2024-01-27T08:34:08;5.35;;;2.67;;
33836;SDS011;20140;49.356;8.812;2024-01-27T08:36:34;8.60;;;4.03;;
33836;SDS011;20140;49.356;8.812;2024-01-27T08:39:00;11.90;;;5.82;;
33836;SDS011;20140;49.356;8.812;2024-01-27T08:41:26;31.27;;;9.88;;
33836;SDS011;20140;49.356;8.812;2024-01-27T08:43:51;19.47;;;9.43;;
33836;SDS011;20140;49.356;8.812;2024-01-27T08:46:17;38.80;;;12.10;;
33836;SDS011;20140;49.356;8.812;2024-01-27T08:48:44;24.75;;;9.73;;
33836;SDS011;20140;49.356;8.812;2024-01-27T08:51:10;17.93;;;8.57;;
33836;SDS011;20140;49.356;8.812;2024-01-27T08:53:37;24.50;;;9.48;;
33836;SDS011;20140;49.356;8.812;2024-01-27T08:56:03;20.40;;;8.47;;
33836;SDS011;20140;49.356;8.812;2024-01-27T08:58:29;12.88;;;7.10;;
33836;SDS011;20140;49.356;8.812;2024-01-27T09:00:56;30.48;;;9.35;;
33836;SDS011;20140;49.356;8.812;2024-01-27T09:03:21;37.47;;;11.77;;
33836;SDS011;20140;49.356;8.812;2024-01-27T09:05:47;18.60;;;6.95;;
33836;SDS011;20140;49.356;8.812;2024-01-27T09:08:12;28.38;;;11.00;;
33836;SDS011;20140;49.356;8.812;2024-01-27T09:10:38;14.75;;;7.35;;
33836;SDS011;20140;49.356;8.812;2024-01-27T09:13:06;22.75;;;9.25;;
33836;SDS011;20140;49.356;8.812;2024-01-27T09:15:32;27.33;;;9.82;;
33836;SDS011;20140;49.356;8.812;2024-01-27T09:17:57;29.42;;;11.38;;
33836;SDS011;20140;49.356;8.812;2024-01-27T09:20:23;30.65;;;10.10;;
33836;SDS011;20140;49.356;8.812;2024-01-27T09:22:48;20.13;;;10.82;;
33836;SDS011;20140;49.356;8.812;2024-01-27T09:25:15;16.70;;;7.75;;
33836;SDS011;20140;49.356;8.812;2024-01-27T09:27:41;20.83;;;9.37;;
33836;SDS011;20140;49.356;8.812;2024-01-27T09:30:06;14.97;;;8.40;;
33836;SDS011;20140;49.356;8.812;2024-01-27T09:32:32;14.43;;;7.15;;
33836;SDS011;20140;49.356;8.812;2024-01-27T09:34:58;15.70;;;7.00;;
33836;SDS011;20140;49.356;8.812;2024-01-27T09:37:23;23.63;;;8.43;;
33836;SDS011;20140;49.356;8.812;2024-01-27T09:39:49;14.23;;;6.78;;
33836;SDS011;20140;49.356;8.812;2024-01-27T09:42:15;13.23;;;6.63;;
33836;SDS011;20140;49.356;8.812;2024-01-27T09:44:42;22.50;;;10.25;;
33836;SDS011;20140;49.356;8.812;2024-01-27T09:47:10;17.58;;;9.35;;
33836;SDS011;20140;49.356;8.812;2024-01-27T09:49:38;18.48;;;9.88;;
33836;SDS011;20140;49.356;8.812;2024-01-27T09:52:05;14.43;;;7.90;;
33836;SDS011;20140;49.356;8.812;2024-01-27T09:54:32;12.63;;;7.20;;
33836;SDS011;20140;49.356;8.812;2024-01-27T09:56:58;11.40;;;6.10;;
33836;SDS011;20140;49.356;8.812;2024-01-27T09:59:23;10.90;;;7.03;;
33836;SDS011;20140;49.356;8.812;2024-01-27T10:01:50;9.70;;;5.35;;
33836;SDS011;20140;49.356;8.812;2024-01-27T10:04:19;8.68;;;5.47;;
33836;SDS011;20140;49.356;8.812;2024-01-27T10:06:46;5.90;;;4.07;;
33836;SDS011;20140;49.356;8.812;2024-01-27T10:09:13;8.15;;;4.93;;
33836;SDS011;20140;49.356;8.812;2024-01-27T10:11:39;6.70;;;5.07;;
33836;SDS011;20140;49.356;8.812;2024-01-27T10:14:10;7.47;;;4.97;;
33836;SDS011;20140;49.356;8.812;2024-01-27T10:16:45;7.05;;;4.20;;
33836;SDS011;20140;49.356;8.812;2024-01-27T10:19:14;5.70;;;4.35;;
33836;SDS011;20140;49.356;8.812;2024-01-27T10:21:44;6.37;;;3.93;;
33836;SDS011;20140;49.356;8.812;2024-01-27T10:24:11;4.85;;;3.63;;
33836;SDS011;20140;49.356;8.812;2024-01-27T10:26:37;5.57;;;3.73;;
33836;SDS011;20140;49.356;8.812;2024-01-27T10:29:03;5.38;;;3.40;;
33836;SDS011;20140;49.356;8.812;2024-01-27T10:31:37;5.60;;;4.43;;
33836;SDS011;20140;49.356;8.812;2024-01-27T10:34:03;5.53;;;3.30;;
33836;SDS011;20140;49.356;8.812;2024-01-27T10:36:41;6.55;;;4.00;;
33836;SDS011;20140;49.356;8.812;2024-01-27T10:39:22;6.88;;;4.30;;
33836;SDS011;20140;49.356;8.812;2024-01-27T10:41:48;6.70;;;4.97;;
33836;SDS011;20140;49.356;8.812;2024-01-27T10:44:16;6.88;;;5.43;;
33836;SDS011;20140;49.356;8.812;2024-01-27T10:46:42;5.45;;;4.50;;
33836;SDS011;20140;49.356;8.812;2024-01-27T10:49:13;6.37;;;5.03;;
33836;SDS011;20140;49.356;8.812;2024-01-27T10:51:46;8.77;;;5.90;;
33836;SDS011;20140;49.356;8.812;2024-01-27T10:54:24;7.63;;;5.57;;
33836;SDS011;20140;49.356;8.812;2024-01-27T10:56:51;10.43;;;7.18;;
33836;SDS011;20140;49.356;8.812;2024-01-27T10:59:19;10.50;;;6.45;;
33836;SDS011;20140;49.356;8.812;2024-01-27T11:01:48;13.25;;;6.05;;
33836;SDS011;20140;49.356;8.812;2024-01-27T11:04:17;8.70;;;6.32;;
33836;SDS011;20140;49.356;8.812;2024-01-27T11:06:45;8.15;;;7.05;;
33836;SDS011;20140;49.356;8.812;2024-01-27T11:09:12;7.15;;;6.40;;
33836;SDS011;20140;49.356;8.812;2024-01-27T11:11:39;10.23;;;6.38;;
33836;SDS011;20140;49.356;8.812;2024-01-27T11:14:09;7.97;;;5.88;;
33836;SDS011;20140;49.356;8.812;2024-01-27T11:16:38;7.25;;;5.35;;
33836;SDS011;20140;49.356;8.812;2024-01-27T11:19:09;8.20;;;6.20;;
33836;SDS011;20140;49.356;8.812;2024-01-27T11:21:36;8.90;;;6.30;;
33836;SDS011;20140;49.356;8.812;2024-01-27T11:24:12;7.63;;;4.43;;
33836;SDS011;20140;49.356;8.812;2024-01-27T11:26:38;5.78;;;4.38;;
33836;SDS011;20140;49.356;8.812;2024-01-27T11:29:07;5.10;;;3.80;;
33836;SDS011;20140;49.356;8.812;2024-01-27T11:31:34;5.63;;;3.28;;
33836;SDS011;20140;49.356;8.812;2024-01-27T11:34:00;4.45;;;3.40;;
33836;SDS011;20140;49.356;8.812;2024-01-27T11:36:26;6.20;;;3.60;;
33836;SDS011;20140;49.356;8.812;2024-01-27T11:38:52;4.78;;;3.63;;
33836;SDS011;20140;49.356;8.812;2024-01-27T11:41:25;6.63;;;3.60;;
33836;SDS011;20140;49.356;8.812;2024-01-27T11:43:52;6.00;;;3.22;;
33836;SDS011;20140;49.356;8.812;2024-01-27T11:46:21;4.13;;;3.00;;
33836;SDS011;20140;49.356;8.812;2024-01-27T11:48:50;4.95;;;3.33;;
33836;SDS011;20140;49.356;8.812;2024-01-27T11:51:15;4.82;;;3.63;;
33836;SDS011;20140;49.356;8.812;2024-01-27T11:53:43;10.52;;;4.07;;
33836;SDS011;20140;49.356;8.812;2024-01-27T11:56:10;6.68;;;3.60;;
33836;SDS011;20140;49.356;8.812;2024-01-27T11:58:35;4.35;;;3.80;;
33836;SDS011;20140;49.356;8.812;2024-01-27T12:01:01;6.30;;;4.00;;
33836;SDS011;20140;49.356;8.812;2024-01-27T12:03:26;6.80;;;3.25;;
33836;SDS011;20140;49.356;8.812;2024-01-27T12:05:53;4.25;;;3.42;;
33836;SDS011;20140;49.356;8.812;2024-01-27T12:08:19;6.32;;;3.78;;
33836;SDS011;20140;49.356;8.812;2024-01-27T12:10:45;8.67;;;3.90;;
33836;SDS011;20140;49.356;8.812;2024-01-27T12:13:11;7.30;;;3.57;;
33836;SDS011;20140;49.356;8.812;2024-01-27T12:15:36;7.82;;;3.92;;
33836;SDS011;20140;49.356;8.812;2024-01-27T12:18:04;4.33;;;2.50;;
33836;SDS011;20140;49.356;8.812;2024-01-27T12:20:29;7.32;;;3.28;;
33836;SDS011;20140;49.356;8.812;2024-01-27T12:23:04;3.47;;;1.83;;
33836;SDS011;20140;49.356;8.812;2024-01-27T12:25:31;8.93;;;3.50;;
33836;SDS011;20140;49.356;8.812;2024-01-27T12:27:57;3.80;;;1.92;;
33836;SDS011;20140;49.356;8.812;2024-01-27T12:30:26;4.90;;;1.92;;
33836;SDS011;20140;49.356;8.812;2024-01-27T12:32:52;3.45;;;1.30;;
33836;SDS011;20140;49.356;8.812;2024-01-27T12:35:18;4.18;;;1.80;;
33836;SDS011;20140;49.356;8.812;2024-01-27T12:37:43;5.18;;;2.08;;
33836;SDS011;20140;49.356;8.812;2024-01-27T12:40:18;6.03;;;1.63;;
33836;SDS011;20140;49.356;8.812;2024-01-27T12:42:45;3.75;;;1.38;;
33836;SDS011;20140;49.356;8.812;2024-01-27T12:45:11;4.25;;;1.90;;
33836;SDS011;20140;49.356;8.812;2024-01-27T12:47:37;4.63;;;1.67;;
33836;SDS011;20140;49.356;8.812;2024-01-27T12:50:03;3.50;;;1.40;;
33836;SDS011;20140;49.356;8.812;2024-01-27T12:52:28;6.70;;;2.00;;
33836;SDS011;20140;49.356;8.812;2024-01-27T12:54:54;5.07;;;1.40;;
33836;SDS011;20140;49.356;8.812;2024-01-27T12:57:19;3.13;;;1.40;;
33836;SDS011;20140;49.356;8.812;2024-01-27T12:59:45;4.00;;;1.48;;
33836;SDS011;20140;49.356;8.812;2024-01-27T13:02:11;4.93;;;1.90;;
33836;SDS011;20140;49.356;8.812;2024-01-27T13:04:36;2.97;;;1.27;;
33836;SDS011;20140;49.356;8.812;2024-01-27T13:07:02;4.60;;;1.08;;
33836;SDS011;20140;49.356;8.812;2024-01-27T13:09:28;3.57;;;2.13;;
33836;SDS011;20140;49.356;8.812;2024-01-27T13:11:53;2.95;;;1.23;;
33836;SDS011;20140;49.356;8.812;2024-01-27T13:14:19;3.40;;;1.37;;
33836;SDS011;20140;49.356;8.812;2024-01-27T13:16:46;3.83;;;1.30;;
33836;SDS011;20140;49.356;8.812;2024-01-27T13:19:12;4.47;;;1.83;;
33836;SDS011;20140;49.356;8.812;2024-01-27T13:21:37;1.50;;;1.00;;
33836;SDS011;20140;49.356;8.812;2024-01-27T13:24:05;3.22;;;1.05;;
33836;SDS011;20140;49.356;8.812;2024-01-27T13:26:32;3.00;;;1.00;;
33836;SDS011;20140;49.356;8.812;2024-01-27T13:29:01;4.55;;;1.00;;
33836;SDS011;20140;49.356;8.812;2024-01-27T13:31:27;2.63;;;0.80;;
33836;SDS011;20140;49.356;8.812;2024-01-27T13:33:52;3.78;;;1.00;;
33836;SDS011;20140;49.356;8.812;2024-01-27T13:36:18;2.40;;;0.70;;
33836;SDS011;20140;49.356;8.812;2024-01-27T13:38:43;1.85;;;0.73;;
33836;SDS011;20140;49.356;8.812;2024-01-27T13:41:09;3.43;;;0.57;;
33836;SDS011;20140;49.356;8.812;2024-01-27T13:43:34;2.50;;;0.57;;
33836;SDS011;20140;49.356;8.812;2024-01-27T13:46:00;2.07;;;0.60;;
33836;SDS011;20140;49.356;8.812;2024-01-27T13:48:25;1.77;;;0.70;;
33836;SDS011;20140;49.356;8.812;2024-01-27T13:50:52;2.07;;;0.83;;
33836;SDS011;20140;49.356;8.812;2024-01-27T13:53:17;1.80;;;1.00;;
33836;SDS011;20140;49.356;8.812;2024-01-27T13:55:43;2.20;;;0.80;;
33836;SDS011;20140;49.356;8.812;2024-01-27T13:58:09;1.77;;;0.80;;
33836;SDS011;20140;49.356;8.812;2024-01-27T14:00:35;3.22;;;0.70;;
33836;SDS011;20140;49.356;8.812;2024-01-27T14:03:00;3.72;;;0.88;;
33836;SDS011;20140;49.356;8.812;2024-01-27T14:05:26;2.40;;;0.50;;
33836;SDS011;20140;49.356;8.812;2024-01-27T14:07:52;1.65;;;0.80;;
33836;SDS011;20140;49.356;8.812;2024-01-27T14:10:17;2.20;;;0.70;;
33836;SDS011;20140;49.356;8.812;2024-01-27T14:12:43;3.05;;;0.60;;
33836;SDS011;20140;49.356;8.812;2024-01-27T14:15:08;1.20;;;0.80;;
33836;SDS011;20140;49.356;8.812;2024-01-27T14:17:35;3.45;;;0.60;;
33836;SDS011;20140;49.356;8.812;2024-01-27T14:20:01;2.45;;;1.38;;
33836;SDS011;20140;49.356;8.812;2024-01-27T14:22:28;2.15;;;0.73;;
33836;SDS011;20140;49.356;8.812;2024-01-27T14:24:53;3.17;;;1.83;;
33836;SDS011;20140;49.356;8.812;2024-01-27T14:27:19;2.58;;;0.95;;
33836;SDS011;20140;49.356;8.812;2024-01-27T14:29:53;4.22;;;1.60;;
33836;SDS011;20140;49.356;8.812;2024-01-27T14:32:20;6.83;;;2.03;;
33836;SDS011;20140;49.356;8.812;2024-01-27T14:34:46;1.70;;;1.00;;
33836;SDS011;20140;49.356;8.812;2024-01-27T14:37:12;3.42;;;1.13;;
33836;SDS011;20140;49.356;8.812;2024-01-27T14:39:38;4.53;;;0.93;;
33836;SDS011;20140;49.356;8.812;2024-01-27T14:42:07;1.83;;;1.38;;
33836;SDS011;20140;49.356;8.812;2024-01-27T14:44:33;2.28;;;0.80;;
33836;SDS011;20140;49.356;8.812;2024-01-27T14:46:58;2.17;;;0.95;;